createdAt,value
2019-03-22T00:00:51.817Z,35.07
2019-03-22T00:02:54.069Z,35.13
2019-03-22T00:04:56.365Z,35.07
2019-03-22T00:06:58.769Z,34.93
2019-03-22T00:09:01.138Z,37.10
2019-03-22T00:11:03.441Z,36.50
2019-03-22T00:13:05.801Z,36.53
2019-03-22T00:15:08.183Z,33.20
2019-03-22T00:17:10.450Z,36.00
2019-03-22T00:19:12.709Z,32.13
2019-03-22T00:21:14.957Z,35.67
2019-03-22T00:23:17.300Z,34.63
2019-03-22T00:25:19.553Z,33.70
2019-03-22T00:27:21.806Z,31.67
2019-03-22T00:29:24.052Z,25.50
2019-03-22T00:31:26.354Z,27.67
2019-03-22T00:33:28.604Z,28.70
2019-03-22T00:35:30.873Z,24.67
2019-03-22T00:37:33.237Z,25.17
2019-03-22T00:39:35.484Z,24.50
2019-03-22T00:41:37.765Z,24.47
2019-03-22T00:43:40.188Z,29.87
2019-03-22T00:45:42.420Z,29.47
2019-03-22T00:47:44.678Z,29.97
2019-03-22T00:49:46.941Z,27.10
2019-03-22T00:51:49.227Z,27.43
2019-03-22T00:53:51.452Z,30.00
2019-03-22T00:55:53.701Z,27.60
2019-03-22T00:57:55.996Z,28.03
2019-03-22T00:59:58.509Z,28.20
2019-03-22T01:02:00.958Z,26.13
2019-03-22T01:04:03.404Z,29.20
2019-03-22T01:06:05.661Z,28.80
2019-03-22T01:08:08.021Z,31.33
2019-03-22T01:10:10.468Z,28.30
2019-03-22T01:12:12.966Z,30.57
2019-03-22T01:14:15.299Z,29.83
2019-03-22T01:16:17.560Z,32.23
2019-03-22T01:18:19.910Z,27.97
2019-03-22T01:20:22.245Z,32.20
2019-03-22T01:22:24.504Z,29.30
2019-03-22T01:24:26.875Z,28.40
2019-03-22T01:26:29.133Z,31.57
2019-03-22T01:28:31.377Z,30.40
2019-03-22T01:30:33.632Z,32.33
2019-03-22T01:32:35.930Z,31.60
2019-03-22T01:34:38.183Z,30.73
2019-03-22T01:36:40.799Z,31.77
2019-03-22T01:38:43.032Z,30.80
2019-03-22T01:40:45.473Z,32.37
2019-03-22T01:42:47.749Z,33.23
2019-03-22T01:44:49.991Z,31.67
2019-03-22T01:46:52.353Z,33.67
2019-03-22T01:48:54.625Z,33.63
2019-03-22T01:50:56.921Z,34.60
2019-03-22T01:52:59.268Z,33.07
2019-03-22T01:55:01.629Z,35.10
2019-03-22T01:57:04.120Z,31.43
2019-03-22T01:59:06.362Z,35.30
2019-03-22T02:01:08.731Z,32.90
2019-03-22T02:03:10.981Z,33.67
2019-03-22T02:05:13.333Z,33.53
2019-03-22T02:07:15.689Z,32.20
2019-03-22T02:09:17.935Z,34.70
2019-03-22T02:11:20.309Z,35.30
2019-03-22T02:13:22.993Z,32.60
2019-03-22T02:15:25.249Z,32.23
2019-03-22T02:17:27.604Z,32.60
2019-03-22T02:19:29.879Z,31.87
2019-03-22T02:21:33.179Z,33.43
2019-03-22T02:23:35.426Z,34.80
2019-03-22T02:25:37.696Z,32.40
2019-03-22T02:27:40.369Z,34.47
2019-03-22T02:29:44.441Z,32.67
2019-03-22T02:31:46.782Z,32.87
2019-03-22T02:33:49.032Z,36.73
2019-03-22T02:35:51.293Z,35.20
2019-03-22T02:37:53.859Z,34.37
2019-03-22T02:39:56.083Z,31.47
2019-03-22T02:41:58.331Z,34.07
2019-03-22T02:44:00.602Z,32.77
2019-03-22T02:46:03.049Z,33.10
2019-03-22T02:48:05.304Z,33.50
2019-03-22T02:50:17.665Z,33.83
2019-03-22T02:52:12.556Z,33.80
2019-03-22T02:54:14.810Z,36.10
2019-03-22T02:56:17.065Z,36.57
2019-03-22T02:58:20.851Z,35.97
2019-03-22T03:00:23.481Z,36.07
2019-03-22T03:02:25.861Z,39.40
2019-03-22T03:04:28.462Z,35.30
2019-03-22T03:06:30.728Z,35.93
2019-03-22T03:08:32.973Z,35.10
2019-03-22T03:10:35.338Z,34.57
2019-03-22T03:12:37.813Z,33.87
2019-03-22T03:14:40.074Z,35.90
2019-03-22T03:16:42.340Z,36.80
2019-03-22T03:18:44.717Z,36.07
2019-03-22T03:20:46.990Z,35.60
2019-03-22T03:22:49.272Z,36.50
2019-03-22T03:24:51.589Z,36.10
2019-03-22T03:26:53.880Z,35.00
2019-03-22T03:28:56.107Z,38.50
2019-03-22T03:30:58.466Z,36.57
2019-03-22T03:33:00.725Z,35.23
2019-03-22T03:35:03.677Z,38.10
2019-03-22T03:37:06.582Z,36.40
2019-03-22T03:39:08.823Z,34.10
2019-03-22T03:41:11.400Z,32.90
2019-03-22T03:43:13.746Z,34.57
2019-03-22T03:45:33.964Z,34.37
2019-03-22T03:47:36.220Z,35.77
2019-03-22T03:49:38.468Z,32.03
2019-03-22T03:51:40.712Z,35.53
2019-03-22T03:53:43.014Z,33.93
2019-03-22T03:55:45.258Z,36.40
2019-03-22T03:57:47.501Z,35.80
2019-03-22T03:59:49.761Z,35.93
2019-03-22T04:01:52.106Z,37.50
2019-03-22T04:03:54.363Z,37.40
2019-03-22T04:05:56.610Z,39.07
2019-03-22T04:07:58.855Z,37.23
2019-03-22T04:10:01.100Z,36.23
2019-03-22T04:12:03.477Z,36.40
2019-03-22T04:14:05.738Z,37.93
2019-03-22T04:16:08.003Z,37.40
2019-03-22T04:18:10.240Z,40.03
2019-03-22T04:20:13.513Z,39.67
2019-03-22T04:22:15.770Z,37.30
2019-03-22T04:24:18.022Z,37.80
2019-03-22T04:26:20.518Z,38.03
2019-03-22T04:28:22.765Z,38.40
2019-03-22T04:30:25.038Z,37.57
2019-03-22T04:32:27.321Z,36.80
2019-03-22T04:34:29.564Z,37.80
2019-03-22T04:36:31.809Z,40.93
2019-03-22T04:38:34.084Z,38.47
2019-03-22T04:40:36.348Z,38.97
2019-03-22T04:42:38.616Z,38.20
2019-03-22T04:44:41.233Z,38.43
2019-03-22T04:46:44.565Z,39.27
2019-03-22T04:48:48.406Z,40.37
2019-03-22T04:50:53.085Z,38.60
2019-03-22T04:52:57.052Z,40.60
2019-03-22T04:55:00.526Z,39.87
2019-03-22T04:57:05.988Z,38.57
2019-03-22T04:59:18.862Z,39.00
2019-03-22T05:01:18.921Z,40.50
2019-03-22T05:03:22.084Z,39.07
2019-03-22T05:05:24.749Z,38.70
2019-03-22T05:07:27.872Z,38.40
2019-03-22T05:09:33.390Z,39.27
2019-03-22T05:11:36.089Z,39.07
2019-03-22T05:13:39.573Z,39.60
2019-03-22T05:15:43.294Z,41.53
2019-03-22T05:17:46.485Z,41.60
2019-03-22T05:19:52.122Z,43.80
2019-03-22T05:21:56.169Z,44.60
2019-03-22T05:24:02.692Z,40.67
2019-03-22T05:26:05.693Z,43.03
2019-03-22T05:28:10.279Z,41.63
2019-03-22T05:30:37.165Z,37.63
2019-03-22T05:32:39.419Z,36.70
2019-03-22T05:34:41.772Z,36.53
2019-03-22T05:36:44.061Z,34.20
2019-03-22T05:38:46.294Z,39.03
2019-03-22T05:40:48.540Z,37.63
2019-03-22T05:42:50.900Z,40.60
2019-03-22T05:44:53.177Z,39.00
2019-03-22T05:46:55.658Z,39.10
2019-03-22T05:48:57.911Z,36.87
2019-03-22T05:51:00.233Z,37.83
2019-03-22T05:53:02.541Z,37.10
2019-03-22T05:55:05.602Z,35.67
2019-03-22T05:57:13.387Z,35.20
2019-03-22T05:59:12.100Z,34.60
2019-03-22T06:01:14.349Z,35.40
2019-03-22T06:03:16.646Z,34.80
2019-03-22T06:05:18.897Z,36.67
2019-03-22T06:07:21.200Z,42.33
2019-03-22T06:09:23.602Z,39.10
2019-03-22T06:11:25.858Z,39.30
2019-03-22T06:13:28.088Z,41.60
2019-03-22T06:15:30.348Z,42.83
2019-03-22T06:17:32.623Z,39.97
2019-03-22T06:19:35.163Z,40.40
2019-03-22T06:21:37.502Z,40.83
2019-03-22T06:23:39.826Z,36.40
2019-03-22T06:25:42.295Z,36.10
2019-03-22T06:27:44.655Z,35.50
2019-03-22T06:29:54.254Z,38.13
2019-03-22T06:31:51.074Z,37.03
2019-03-22T06:33:53.442Z,36.60
2019-03-22T06:35:55.684Z,34.70
2019-03-22T06:37:57.961Z,35.73
2019-03-22T06:40:00.398Z,37.37
2019-03-22T06:42:03.188Z,36.33
2019-03-22T06:44:05.624Z,34.60
2019-03-22T06:46:08.022Z,34.83
2019-03-22T06:48:10.586Z,36.07
2019-03-22T06:50:13.102Z,38.37
2019-03-22T06:52:15.365Z,37.23
2019-03-22T06:54:17.729Z,34.67
2019-03-22T06:56:20.043Z,36.10
2019-03-22T06:58:24.232Z,35.40
2019-03-22T07:00:26.843Z,38.67
2019-03-22T07:02:29.343Z,36.40
2019-03-22T07:04:31.606Z,35.70
2019-03-22T07:06:33.848Z,37.87
2019-03-22T07:08:36.078Z,37.50
2019-03-22T07:10:38.325Z,39.60
2019-03-22T07:12:40.577Z,38.70
2019-03-22T07:14:42.832Z,38.73
2019-03-22T07:16:45.452Z,41.70
2019-03-22T07:18:47.832Z,41.33
2019-03-22T07:20:50.086Z,40.73
2019-03-22T07:22:52.449Z,40.47
2019-03-22T07:24:54.700Z,42.20
2019-03-22T07:26:56.942Z,43.07
2019-03-22T07:28:59.307Z,41.17
2019-03-22T07:31:01.558Z,41.73
2019-03-22T07:33:04.005Z,40.60
2019-03-22T07:35:06.433Z,41.77
2019-03-22T07:37:08.689Z,42.00
2019-03-22T07:39:11.033Z,42.70
2019-03-22T07:41:13.295Z,41.70
2019-03-22T07:43:15.573Z,43.20
2019-03-22T07:45:17.822Z,45.30
2019-03-22T07:47:20.474Z,44.37
2019-03-22T07:49:22.725Z,44.70
2019-03-22T07:51:24.981Z,42.07
2019-03-22T07:53:27.260Z,43.43
2019-03-22T07:55:29.518Z,42.30
2019-03-22T07:57:34.813Z,43.63
2019-03-22T07:59:37.064Z,43.07
2019-03-22T08:01:39.445Z,48.47
2019-03-22T08:03:41.702Z,41.33
2019-03-22T08:05:51.029Z,41.20
2019-03-22T08:07:48.103Z,40.00
2019-03-22T08:09:51.364Z,42.50
2019-03-22T08:11:54.057Z,42.37
2019-03-22T08:13:56.313Z,41.10
2019-03-22T08:15:58.669Z,38.40
2019-03-22T08:18:01.130Z,37.33
2019-03-22T08:20:05.220Z,36.30
2019-03-22T08:22:07.476Z,40.33
2019-03-22T08:24:09.869Z,40.60
2019-03-22T08:26:12.245Z,37.97
2019-03-22T08:28:14.637Z,39.77
2019-03-22T08:30:16.950Z,37.43
2019-03-22T08:32:19.238Z,34.73
2019-03-22T08:34:21.573Z,37.63
2019-03-22T08:36:23.841Z,36.70
2019-03-22T08:38:26.110Z,37.17
2019-03-22T08:40:28.635Z,37.90
2019-03-22T08:42:30.918Z,37.07
2019-03-22T08:44:33.173Z,39.57
2019-03-22T08:46:35.457Z,37.10
2019-03-22T08:48:37.890Z,40.87
2019-03-22T08:50:40.405Z,40.10
2019-03-22T08:52:42.680Z,37.80
2019-03-22T08:54:45.090Z,38.63
2019-03-22T08:56:47.369Z,36.73
2019-03-22T08:58:56.971Z,39.13
2019-03-22T09:00:59.497Z,36.00
2019-03-22T09:03:02.132Z,38.20
2019-03-22T09:05:05.437Z,36.53
2019-03-22T09:07:07.701Z,37.10
2019-03-22T09:09:10.063Z,36.27
2019-03-22T09:11:12.628Z,37.33
2019-03-22T09:13:14.921Z,37.40
2019-03-22T09:15:17.276Z,40.37
2019-03-22T09:17:19.828Z,36.73
2019-03-22T09:19:22.162Z,38.90
2019-03-22T09:21:24.680Z,38.53
2019-03-22T09:23:27.120Z,38.43
2019-03-22T09:25:29.471Z,39.33
2019-03-22T09:27:31.696Z,38.40
2019-03-22T09:29:34.061Z,37.40
2019-03-22T09:31:36.394Z,36.37
2019-03-22T09:33:38.640Z,38.90
2019-03-22T09:35:41.137Z,38.13
2019-03-22T09:37:43.604Z,38.67
2019-03-22T09:39:45.946Z,34.73
2019-03-22T09:41:48.450Z,35.90
2019-03-22T09:43:50.885Z,36.40
2019-03-22T09:45:53.253Z,35.90
2019-03-22T09:47:55.645Z,37.23
2019-03-22T09:49:58.039Z,35.03
2019-03-22T09:52:00.375Z,35.43
2019-03-22T09:54:02.614Z,36.40
2019-03-22T09:56:04.971Z,35.60
2019-03-22T09:58:07.367Z,36.43
2019-03-22T10:00:10.032Z,35.77
2019-03-22T10:02:12.406Z,35.93
2019-03-22T10:04:15.021Z,35.60
2019-03-22T10:06:17.299Z,34.27
2019-03-22T10:08:19.568Z,35.07
2019-03-22T10:10:21.888Z,35.03
2019-03-22T10:12:24.226Z,36.03
2019-03-22T10:14:26.467Z,34.70
2019-03-22T10:16:28.833Z,33.83
2019-03-22T10:18:31.098Z,34.17
2019-03-22T10:20:33.322Z,32.90
2019-03-22T10:22:35.670Z,34.17
2019-03-22T10:24:37.968Z,33.80
2019-03-22T10:26:40.312Z,33.17
2019-03-22T10:28:42.601Z,32.60
2019-03-22T10:30:44.933Z,33.20
2019-03-22T10:32:47.996Z,32.33
2019-03-22T10:34:50.328Z,32.80
2019-03-22T10:36:52.613Z,32.97
2019-03-22T10:38:54.858Z,34.87
2019-03-22T10:40:57.159Z,34.63
2019-03-22T10:42:59.450Z,37.47
2019-03-22T10:45:01.814Z,38.80
2019-03-22T10:47:04.070Z,34.80
2019-03-22T10:49:06.426Z,37.40
2019-03-22T10:51:08.760Z,33.40
2019-03-22T10:53:11.042Z,38.47
2019-03-22T10:55:28.899Z,36.97
2019-03-22T10:57:17.801Z,38.30
2019-03-22T10:59:20.073Z,38.30
2019-03-22T11:01:22.303Z,39.83
2019-03-22T11:03:24.721Z,40.90
2019-03-22T11:05:27.005Z,41.80
2019-03-22T11:07:29.252Z,42.10
2019-03-22T11:09:31.513Z,43.77
2019-03-22T11:11:33.997Z,40.77
2019-03-22T11:13:36.270Z,42.60
2019-03-22T11:15:47.917Z,41.60
2019-03-22T11:17:42.825Z,44.70
2019-03-22T11:19:45.097Z,42.40
2019-03-22T11:21:47.762Z,42.77
2019-03-22T11:23:50.369Z,44.73
2019-03-22T11:25:53.042Z,43.10
2019-03-22T11:28:03.665Z,43.47
2019-03-22T11:30:07.482Z,43.70
2019-03-22T11:32:12.819Z,41.40
2019-03-22T11:34:14.203Z,42.30
2019-03-22T11:36:16.513Z,45.70
2019-03-22T11:38:18.802Z,43.77
2019-03-22T11:40:21.107Z,44.00
2019-03-22T11:42:26.829Z,42.70
2019-03-22T11:44:29.595Z,42.00
2019-03-22T11:46:52.652Z,39.17
2019-03-22T11:48:54.905Z,41.07
2019-03-22T11:50:57.407Z,42.50
2019-03-22T11:52:59.749Z,39.73
2019-03-22T11:55:02.184Z,40.47
2019-03-22T11:57:04.626Z,39.00
2019-03-22T11:59:07.042Z,38.40
2019-03-22T12:01:28.830Z,38.07
2019-03-22T12:03:31.137Z,36.23
2019-03-22T12:06:32.542Z,37.90
2019-03-22T12:08:34.922Z,37.70
2019-03-22T12:10:50.500Z,35.30
2019-03-22T12:12:53.093Z,38.00
2019-03-22T12:14:55.404Z,37.73
2019-03-22T12:16:57.733Z,37.57
2019-03-22T12:18:59.990Z,38.13
2019-03-22T12:21:02.733Z,37.20
2019-03-22T12:23:05.116Z,38.13
2019-03-22T12:25:08.427Z,66.67
2019-03-22T12:27:10.782Z,38.03
2019-03-22T12:29:13.125Z,39.27
2019-03-22T12:31:15.422Z,42.10
2019-03-22T12:33:17.894Z,41.90
2019-03-22T12:35:20.445Z,40.40
2019-03-22T12:37:22.981Z,39.20
2019-03-22T12:39:28.721Z,38.33
2019-03-22T12:41:31.090Z,38.87
2019-03-22T12:43:34.258Z,37.57
2019-03-22T12:45:38.456Z,34.57
2019-03-22T12:47:40.845Z,38.87
2019-03-22T12:50:49.153Z,39.63
2019-03-22T12:52:57.927Z,37.73
2019-03-22T12:55:00.392Z,36.70
2019-03-22T12:57:02.985Z,36.70
2019-03-22T12:59:05.362Z,37.33
2019-03-22T13:01:07.873Z,36.57
2019-03-22T13:03:10.277Z,38.90
2019-03-22T13:05:12.949Z,38.50
2019-03-22T13:07:15.421Z,37.07
2019-03-22T13:09:17.699Z,38.90
2019-03-22T13:11:19.953Z,40.33
2019-03-22T13:13:22.281Z,41.57
2019-03-22T13:15:24.926Z,40.27
2019-03-22T13:17:27.313Z,39.90
2019-03-22T13:19:32.655Z,39.23
2019-03-22T13:21:35.150Z,41.00
2019-03-22T13:23:37.526Z,38.50
2019-03-22T13:25:40.500Z,39.53
2019-03-22T13:27:42.860Z,38.30
2019-03-22T13:29:45.183Z,39.47
2019-03-22T13:31:47.576Z,42.07
2019-03-22T13:33:52.443Z,37.43
2019-03-22T13:35:54.705Z,40.20
2019-03-22T13:37:57.191Z,39.70
2019-03-22T13:39:59.461Z,38.77
2019-03-22T13:42:01.831Z,38.47
2019-03-22T13:44:06.303Z,40.60
2019-03-22T13:46:08.639Z,42.00
2019-03-22T13:48:11.029Z,40.47
2019-03-22T13:50:13.411Z,43.13
2019-03-22T13:52:15.690Z,40.37
2019-03-22T13:54:18.293Z,37.77
2019-03-22T13:56:29.905Z,40.90
2019-03-22T13:58:32.158Z,40.07
2019-03-22T14:00:34.461Z,40.00
2019-03-22T14:02:36.830Z,42.60
2019-03-22T14:04:39.377Z,41.60
2019-03-22T14:06:41.889Z,41.63
2019-03-22T14:08:44.306Z,39.47
2019-03-22T14:10:46.691Z,41.97
2019-03-22T14:12:52.014Z,40.80
2019-03-22T14:14:54.390Z,41.87
2019-03-22T14:16:56.665Z,39.03
2019-03-22T14:19:00.059Z,40.80
2019-03-22T14:21:02.727Z,42.37
2019-03-22T14:23:05.318Z,41.37
2019-03-22T14:25:07.633Z,40.73
2019-03-22T14:27:10.257Z,43.00
2019-03-22T14:29:12.826Z,42.03
2019-03-22T14:31:15.098Z,42.70
2019-03-22T14:33:17.395Z,43.80
2019-03-22T14:35:19.714Z,40.50
2019-03-22T14:37:22.182Z,42.33
2019-03-22T14:39:24.667Z,40.80
2019-03-22T14:41:27.054Z,43.00
2019-03-22T14:43:29.744Z,41.80
2019-03-22T14:45:32.010Z,42.90
2019-03-22T14:47:34.532Z,43.10
2019-03-22T14:49:36.997Z,44.07
2019-03-22T14:51:39.273Z,42.80
2019-03-22T14:53:41.541Z,42.33
2019-03-22T14:55:43.964Z,42.20
2019-03-22T14:57:50.134Z,42.33
2019-03-22T14:59:58.533Z,43.43
2019-03-22T15:01:54.636Z,43.37
2019-03-22T15:03:56.887Z,40.53
2019-03-22T15:05:59.162Z,41.70
2019-03-22T15:08:01.537Z,43.63
2019-03-22T15:10:04.516Z,42.70
2019-03-22T15:12:06.853Z,43.83
2019-03-22T15:14:21.992Z,44.00
2019-03-22T15:16:46.780Z,43.57
2019-03-22T15:19:01.638Z,43.27
2019-03-22T15:21:39.160Z,42.33
2019-03-22T15:24:19.264Z,42.10
2019-03-22T15:26:45.438Z,42.50
2019-03-22T15:29:06.333Z,43.40
2019-03-22T15:31:27.597Z,44.07
2019-03-22T15:34:01.660Z,43.27
2019-03-22T15:36:23.686Z,42.37
2019-03-22T15:38:37.658Z,41.97
2019-03-22T15:40:40.215Z,39.83
2019-03-22T15:42:42.678Z,41.23
2019-03-22T15:44:44.918Z,41.13
2019-03-22T15:46:47.295Z,42.47
2019-03-22T15:48:49.825Z,41.67
2019-03-22T15:50:52.167Z,40.60
2019-03-22T15:52:54.752Z,42.10
2019-03-22T15:54:56.988Z,43.77
2019-03-22T15:56:59.316Z,41.80
2019-03-22T15:59:01.861Z,42.67
2019-03-22T16:01:04.719Z,40.23
2019-03-22T16:03:07.101Z,42.47
2019-03-22T16:05:11.057Z,40.20
2019-03-22T16:07:16.435Z,38.63
2019-03-22T16:09:18.884Z,40.40
2019-03-22T16:11:21.283Z,40.57
2019-03-22T16:13:23.774Z,42.00
2019-03-22T16:15:26.036Z,40.23
2019-03-22T16:17:28.445Z,42.93
2019-03-22T16:19:30.812Z,43.10
2019-03-22T16:21:33.251Z,43.10
2019-03-22T16:23:38.033Z,43.00
2019-03-22T16:25:40.313Z,41.60
2019-03-22T16:27:42.676Z,39.60
2019-03-22T16:29:45.045Z,42.30
2019-03-22T16:31:47.428Z,44.80
2019-03-22T16:33:54.291Z,44.63
2019-03-22T16:39:21.148Z,43.33
2019-03-22T16:41:25.531Z,43.77
2019-03-22T16:43:27.784Z,44.33
2019-03-22T16:45:38.100Z,41.43
2019-03-22T16:47:40.401Z,42.03
2019-03-22T16:49:45.254Z,42.30
2019-03-22T16:51:47.505Z,44.33
2019-03-22T16:53:49.886Z,48.93
2019-03-22T16:55:52.261Z,42.13
2019-03-22T16:57:54.563Z,44.10
2019-03-22T16:59:56.894Z,44.07
2019-03-22T17:02:01.094Z,42.00
2019-03-22T17:04:04.731Z,42.50
2019-03-22T17:06:07.549Z,45.27
2019-03-22T17:08:12.965Z,46.67
2019-03-22T17:10:15.321Z,45.70
2019-03-22T17:12:17.724Z,53.03
2019-03-22T17:14:21.759Z,50.00
2019-03-22T17:16:24.727Z,47.10
2019-03-22T17:18:27.072Z,48.63
2019-03-22T17:20:29.373Z,57.20
2019-03-22T17:22:31.894Z,59.77
2019-03-22T17:24:34.972Z,52.77
2019-03-22T17:26:37.314Z,46.70
2019-03-22T17:28:39.569Z,48.37
2019-03-22T17:30:41.841Z,46.63
2019-03-22T17:32:44.265Z,45.87
2019-03-22T17:34:46.659Z,43.90
2019-03-22T17:36:48.877Z,49.83
2019-03-22T17:38:51.260Z,47.47
2019-03-22T17:40:53.626Z,47.67
2019-03-22T17:42:55.879Z,44.63
2019-03-22T17:44:58.163Z,48.60
2019-03-22T17:47:01.919Z,49.30
2019-03-22T17:49:04.348Z,50.40
2019-03-22T17:51:06.597Z,46.50
2019-03-22T17:53:08.873Z,48.03
2019-03-22T17:55:11.850Z,46.13
2019-03-22T17:57:18.608Z,47.80
2019-03-22T17:59:22.949Z,47.43
2019-03-22T18:01:25.231Z,45.27
2019-03-22T18:03:38.117Z,44.90
2019-03-22T18:05:40.480Z,47.13
2019-03-22T18:07:42.717Z,43.67
2019-03-22T18:09:45.021Z,45.10
2019-03-22T18:11:47.276Z,45.17
2019-03-22T18:13:49.984Z,48.07
2019-03-22T18:15:55.393Z,47.10
2019-03-22T18:17:57.649Z,50.33
2019-03-22T18:20:01.001Z,45.93
2019-03-22T18:22:03.780Z,45.40
2019-03-22T18:24:06.186Z,46.10
2019-03-22T18:26:08.475Z,46.27
2019-03-22T18:28:10.841Z,46.40
2019-03-22T18:30:14.316Z,47.60
2019-03-22T18:32:16.758Z,47.10
2019-03-22T18:34:19.129Z,46.87
2019-03-22T18:36:21.434Z,47.57
2019-03-22T18:38:23.743Z,46.40
2019-03-22T18:40:26.447Z,47.50
2019-03-22T18:42:28.738Z,48.07
2019-03-22T18:44:31.073Z,46.30
2019-03-22T18:46:33.539Z,46.73
2019-03-22T18:48:35.863Z,46.87
2019-03-22T18:50:38.203Z,45.97
2019-03-22T18:52:40.605Z,47.77
2019-03-22T18:54:42.893Z,48.30
2019-03-22T18:56:45.258Z,50.30
2019-03-22T18:58:47.776Z,46.83
2019-03-22T19:00:50.189Z,48.57
2019-03-22T19:02:52.578Z,49.47
2019-03-22T19:04:55.058Z,48.53
2019-03-22T19:06:57.473Z,49.30
2019-03-22T19:08:59.799Z,53.20
2019-03-22T19:11:02.265Z,49.23
2019-03-22T19:13:05.116Z,49.50
2019-03-22T19:15:08.578Z,50.80
2019-03-22T19:17:11.001Z,52.73
2019-03-22T19:19:13.333Z,52.97
2019-03-22T19:21:15.759Z,49.70
2019-03-22T19:23:18.149Z,50.90
2019-03-22T19:25:20.547Z,54.90
2019-03-22T19:27:22.902Z,53.47
2019-03-22T19:29:25.514Z,50.97
2019-03-22T19:31:28.104Z,52.80
2019-03-22T19:33:31.704Z,48.20
2019-03-22T19:35:34.454Z,51.77
2019-03-22T19:37:37.066Z,50.10
2019-03-22T19:39:39.615Z,50.60
2019-03-22T19:41:42.023Z,51.50
2019-03-22T19:43:44.463Z,47.10
2019-03-22T19:45:46.994Z,50.80
2019-03-22T19:47:49.373Z,51.33
2019-03-22T19:49:51.907Z,53.23
2019-03-22T19:51:54.551Z,49.73
2019-03-22T19:53:57.177Z,49.73
2019-03-22T19:56:00.005Z,49.73
2019-03-22T19:58:02.310Z,51.77
2019-03-22T20:00:06.003Z,51.67
2019-03-22T20:02:08.626Z,52.27
2019-03-22T20:04:12.551Z,52.97
2019-03-22T20:06:17.510Z,51.90
2019-03-22T20:08:20.211Z,48.87
2019-03-22T20:10:24.051Z,50.27
2019-03-22T20:12:26.444Z,51.07
2019-03-22T20:14:29.071Z,50.80
2019-03-22T20:16:31.596Z,53.17
2019-03-22T20:18:34.022Z,49.77
2019-03-22T20:20:36.460Z,50.17
2019-03-22T20:22:38.819Z,52.40
2019-03-22T20:24:41.462Z,51.90
2019-03-22T20:26:46.922Z,53.93
2019-03-22T20:28:49.366Z,51.57
2019-03-22T20:30:51.840Z,51.70
2019-03-22T20:32:54.614Z,52.90
2019-03-22T20:34:57.031Z,52.33
2019-03-22T20:36:59.368Z,51.73
2019-03-22T20:39:03.763Z,54.70
2019-03-22T20:41:06.092Z,53.03
2019-03-22T20:43:08.674Z,51.43
2019-03-22T20:45:11.235Z,52.30
2019-03-22T20:47:13.915Z,52.73
2019-03-22T20:49:16.776Z,55.37
2019-03-22T20:51:19.103Z,52.47
2019-03-22T20:53:21.633Z,53.13
2019-03-22T20:55:24.071Z,52.63
2019-03-22T20:57:26.516Z,55.93
2019-03-22T20:59:28.967Z,53.33
2019-03-22T21:01:31.294Z,53.97
2019-03-22T21:03:33.736Z,53.40
2019-03-22T21:05:36.194Z,54.57
2019-03-22T21:07:38.742Z,54.23
2019-03-22T21:09:41.241Z,53.87
2019-03-22T21:11:43.766Z,53.43
2019-03-22T21:13:46.181Z,53.13
2019-03-22T21:15:48.586Z,53.77
2019-03-22T21:17:51.046Z,48.97
2019-03-22T21:19:53.350Z,53.73
2019-03-22T21:21:55.636Z,53.23
2019-03-22T21:24:08.719Z,50.93
2019-03-22T21:26:38.218Z,51.97
2019-03-22T21:28:41.079Z,53.90
2019-03-22T21:30:43.942Z,53.00
2019-03-22T21:32:46.366Z,54.50
2019-03-22T21:34:48.807Z,53.43
2019-03-22T21:36:51.161Z,50.27
2019-03-22T21:38:53.924Z,54.40
2019-03-22T21:40:58.733Z,57.03
2019-03-22T21:43:01.272Z,55.53
2019-03-22T21:45:04.273Z,58.13
2019-03-22T21:47:06.905Z,57.27
2019-03-22T21:49:09.291Z,56.37
2019-03-22T21:51:11.705Z,57.47
2019-03-22T21:53:14.068Z,57.40
2019-03-22T21:55:16.479Z,55.13
2019-03-22T21:57:18.917Z,53.83
2019-03-22T21:59:21.242Z,58.87
2019-03-22T22:01:23.662Z,58.70
2019-03-22T22:03:26.104Z,54.77
2019-03-22T22:05:28.523Z,57.07
2019-03-22T22:07:30.914Z,55.27
2019-03-22T22:09:33.277Z,54.60
2019-03-22T22:11:35.626Z,57.80
2019-03-22T22:13:38.052Z,55.73
2019-03-22T22:18:17.035Z,54.30
2019-03-22T22:20:28.409Z,56.50
2019-03-22T22:22:23.975Z,56.33
2019-03-22T22:24:26.296Z,55.50
2019-03-22T22:26:28.651Z,56.30
2019-03-22T22:28:30.995Z,59.90
2019-03-22T22:30:33.352Z,59.87
2019-03-22T22:32:35.966Z,58.90
2019-03-22T22:34:38.273Z,58.53
2019-03-22T22:36:40.718Z,58.07
2019-03-22T22:38:43.020Z,58.37
2019-03-22T22:40:45.449Z,57.60
2019-03-22T22:42:47.798Z,56.57
2019-03-22T22:44:50.238Z,60.37
2019-03-22T22:46:52.658Z,58.37
2019-03-22T22:48:54.957Z,55.00
2019-03-22T22:50:57.341Z,57.73
2019-03-22T22:52:59.663Z,57.63
2019-03-22T22:55:02.213Z,57.70
2019-03-22T22:57:04.647Z,54.73
2019-03-22T22:59:07.189Z,58.57
2019-03-22T23:01:09.715Z,59.33
2019-03-22T23:03:12.277Z,59.03
2019-03-22T23:05:14.663Z,60.40
2019-03-22T23:07:17.126Z,55.40
2019-03-22T23:09:19.662Z,55.67
2019-03-22T23:11:22.195Z,58.00
2019-03-22T23:13:24.621Z,56.97
2019-03-22T23:15:26.936Z,59.17
2019-03-22T23:17:29.347Z,58.03
2019-03-22T23:19:31.651Z,58.90
2019-03-22T23:21:34.124Z,55.63
2019-03-22T23:23:36.565Z,55.97
2019-03-22T23:25:38.975Z,58.70
2019-03-22T23:27:41.409Z,58.90
2019-03-22T23:29:43.707Z,62.23
2019-03-22T23:31:46.223Z,60.97
2019-03-22T23:33:48.558Z,63.07
2019-03-22T23:35:51.091Z,56.50
2019-03-22T23:37:53.408Z,64.63
2019-03-22T23:39:55.999Z,61.37
2019-03-22T23:41:58.359Z,58.87
2019-03-22T23:44:00.771Z,54.47
2019-03-22T23:46:03.215Z,57.43
2019-03-22T23:48:05.481Z,60.17
2019-03-22T23:50:08.484Z,63.87
2019-03-22T23:52:10.993Z,59.67
2019-03-22T23:54:13.428Z,58.17
2019-03-22T23:56:18.545Z,58.83
2019-03-22T23:58:27.086Z,59.10
